Nearby METAR Reports

 

KBMG - Bloomington, Indiana, USA
Distance from station: SSE 11mi, 18km
Updated: Tue, 15-Oct-2019 6:53pm EDT
Overcast
Overcast
 Wind from S
Wind: S 5 mph , 7 km/h
Temperature: 68°F , 20°C
Dew Point: 55°F , 13°C
Humidity: 64%
Barometer: 29.81 inHg , 1009.5 hPa
Clouds: Overcast
Visibility: 10 miles , 16 km
Cloud details: Overcast 3600 ft
2019/10/15 22:53 KBMG 152253Z 18004KT 10SM OVC036 20/13 A2981 RMK AO2 SLP093 T02000128
KGPC - Greencastle, Indiana, USA
Distance from station: NNW 24mi, 39km
Updated: Tue, 15-Oct-2019 7:35pm EDT
Mist, Overcast
Mist, Overcast
 Wind from calm
Wind: Calm
Temperature: 61°F , 16°C
Dew Point: 59°F , 15°C
Humidity: 94%
Barometer: 29.84 inHg , 1010.5 hPa
Summary: Mist
Clouds: Overcast
Visibility: 1 3/4 miles , 2.8 km
Cloud details: Partly cloudy 500 ft
Overcast 1100 ft
2019/10/15 23:35 KGPC 152335Z AUTO 00000KT 1 3/4SM BR SCT005 OVC011 16/15 A2984 RMK AO2 P0001
 
KHUF - Terre Haute, Indiana, USA
Distance from station: WNW 34mi, 54km
Updated: Tue, 15-Oct-2019 7:22pm EDT
Mist, Overcast
Mist, Overcast
 Wind from W
Wind: W 10 mph , 17 km/h
Temperature: 63°F , 17°C
Dew Point: 61°F , 16°C
Humidity: 94%
Barometer: 29.84 inHg , 1010.5 hPa
Summary: Mist
Clouds: Overcast
Visibility: 6 miles , 10 km
Cloud details: Few Clouds 700 ft
Overcast 1300 ft
2019/10/15 23:22 KHUF 152322Z 26009KT 6SM BR FEW007 OVC013 17/16 A2984 RMK AO2 RAE2257 P0000 T01720161
KIND - Indianapolis, Indiana, USA
Distance from station: NE 36mi, 58km
Updated: Tue, 15-Oct-2019 6:54pm EDT
Overcast
Overcast
 Wind from SW
Wind: SW 9 mph , 15 km/h
Temperature: 66°F , 19°C
Dew Point: 54°F , 12°C
Humidity: 64%
Barometer: 29.81 inHg , 1009.5 hPa
Clouds: Overcast
Visibility: 10 miles , 16 km
Cloud details: Overcast 3400 ft
2019/10/15 22:54 KIND 152254Z 23008KT 10SM OVC034 19/12 A2981 RMK AO2 SLP093 T01940122
 
KHFY - Indianapolis, Indiana, USA
Distance from station: NE 40mi, 65km
Updated: Tue, 15-Oct-2019 5:35pm EDT
NOT Current
Overcast
Overcast
 Wind from SW
Wind: SW 7 mph , 11 km/h
Temperature: 70°F , 21°C
Dew Point: 54°F , 12°C
Humidity: 57%
Barometer: 29.83 inHg , 1010.2 hPa
Clouds: Overcast
Visibility: 10 miles , 16 km
Cloud details: Overcast 3900 ft
2019/10/15 21:35 KHFY 152135Z AUTO 23006KT 10SM OVC039 21/12 A2983 RMK AO2 T02100120
KBAK - Columbus/Balkala, Indiana, USA
Distance from station: E 43mi, 69km
Updated: Tue, 15-Oct-2019 6:45pm EDT
Overcast
Overcast
 Wind from SSW
Wind: SSW 7 mph , 11 km/h
Temperature: 72°F , 22°C
Dew Point: 54°F , 12°C
Humidity: 53%
Barometer: 29.82 inHg , 1009.8 hPa
Clouds: Overcast
Visibility: 10 miles , 16 km
Cloud details: Partly cloudy 5000 ft
Overcast 5500 ft
2019/10/15 22:45 KBAK 152245Z 21006KT 10SM SCT050 OVC055 22/12 A2982
 
KEYE - Indianapolis, Indiana, USA
Distance from station: NNE 43mi, 69km
Updated: Tue, 15-Oct-2019 6:53pm EDT
Overcast
Overcast
 Wind from SSW
Wind: SSW 7 mph , 11 km/h
Temperature: 66°F , 19°C
Dew Point: 54°F , 12°C
Humidity: 64%
Barometer: 29.80 inHg , 1009.1 hPa
Clouds: Overcast
Visibility: 10 miles , 16 km
Cloud details: Overcast 3100 ft
2019/10/15 22:53 KEYE 152253Z AUTO 21006KT 10SM OVC031 19/12 A2980 RMK AO2 SLP091 T01940122
KDCY - Daviess County, Indiana, USA
Distance from station: SSW 47mi, 76km
Updated: Tue, 15-Oct-2019 7:35pm EDT
Overcast
Overcast
 Wind from WSW
Wind: WSW 8 mph , 13 km/h
Temperature: 70°F , 21°C
Dew Point: 59°F , 15°C
Humidity: 69%
Barometer: 29.83 inHg , 1010.2 hPa
Clouds: Overcast
Visibility: 10 miles , 16 km
Cloud details: Mostly cloudy 3400 ft
Overcast 4500 ft
2019/10/15 23:35 KDCY 152335Z AUTO 24007KT 10SM BKN034 OVC045 21/15 A2983 RMK AO2 LTG DSNT S T02060151
 
KCFJ - Crawfordsville, Indiana, USA
Distance from station: NNW 49mi, 78km
Updated: Tue, 15-Oct-2019 7:35pm EDT
Drizzle, Overcast
Drizzle, Overcast
 Wind from SW
Wind: SW 7 mph , 11 km/h
Temperature: 59°F , 15°C
Dew Point: 59°F , 15°C
Humidity: 100%
Barometer: 29.82 inHg , 1009.8 hPa
Summary: Drizzle
Clouds: Overcast
Visibility: 4 miles , 6 km
Cloud details: Mostly cloudy 900 ft
Overcast 1500 ft
2019/10/15 23:35 KCFJ 152335Z AUTO 22006KT 4SM DZ BKN009 OVC015 15/15 A2982 RMK AO2 T01500150